sensor_id;sensor_type;location;lat;lon;timestamp;P1;durP1;ratioP1;P2;durP2;ratioP2
67696;SDS011;54486;51.442;6.778;2024-01-25T00:00:45;24.55;;;4.97;;
67696;SDS011;54486;51.442;6.778;2024-01-25T00:03:13;21.95;;;4.80;;
67696;SDS011;54486;51.442;6.778;2024-01-25T00:05:40;22.00;;;4.70;;
67696;SDS011;54486;51.442;6.778;2024-01-25T00:08:07;20.77;;;5.15;;
67696;SDS011;54486;51.442;6.778;2024-01-25T00:10:34;20.77;;;4.78;;
67696;SDS011;54486;51.442;6.778;2024-01-25T00:13:02;21.08;;;4.78;;
67696;SDS011;54486;51.442;6.778;2024-01-25T00:15:30;20.13;;;4.40;;
67696;SDS011;54486;51.442;6.778;2024-01-25T00:17:58;20.90;;;4.30;;
67696;SDS011;54486;51.442;6.778;2024-01-25T00:20:25;23.00;;;4.45;;
67696;SDS011;54486;51.442;6.778;2024-01-25T00:22:53;23.83;;;4.70;;
67696;SDS011;54486;51.442;6.778;2024-01-25T00:25:20;18.75;;;4.40;;
67696;SDS011;54486;51.442;6.778;2024-01-25T00:27:48;22.27;;;4.67;;
67696;SDS011;54486;51.442;6.778;2024-01-25T00:30:16;24.17;;;4.97;;
67696;SDS011;54486;51.442;6.778;2024-01-25T00:32:43;19.63;;;4.60;;
67696;SDS011;54486;51.442;6.778;2024-01-25T00:35:10;20.25;;;4.45;;
67696;SDS011;54486;51.442;6.778;2024-01-25T00:37:40;20.98;;;4.85;;
67696;SDS011;54486;51.442;6.778;2024-01-25T00:40:08;20.45;;;4.05;;
67696;SDS011;54486;51.442;6.778;2024-01-25T00:42:42;24.40;;;4.72;;
67696;SDS011;54486;51.442;6.778;2024-01-25T00:45:11;23.02;;;5.15;;
67696;SDS011;54486;51.442;6.778;2024-01-25T00:47:40;18.80;;;4.43;;
67696;SDS011;54486;51.442;6.778;2024-01-25T00:50:08;18.05;;;4.10;;
67696;SDS011;54486;51.442;6.778;2024-01-25T00:52:35;25.08;;;4.10;;
67696;SDS011;54486;51.442;6.778;2024-01-25T00:55:03;18.42;;;3.92;;
67696;SDS011;54486;51.442;6.778;2024-01-25T00:57:32;21.87;;;4.63;;
67696;SDS011;54486;51.442;6.778;2024-01-25T00:59:59;20.73;;;4.57;;
67696;SDS011;54486;51.442;6.778;2024-01-25T01:02:29;22.15;;;3.70;;
67696;SDS011;54486;51.442;6.778;2024-01-25T01:05:01;21.33;;;3.95;;
67696;SDS011;54486;51.442;6.778;2024-01-25T01:07:29;23.98;;;4.50;;
67696;SDS011;54486;51.442;6.778;2024-01-25T01:10:21;19.27;;;5.00;;
67696;SDS011;54486;51.442;6.778;2024-01-25T01:12:49;22.33;;;4.13;;
67696;SDS011;54486;51.442;6.778;2024-01-25T01:15:16;19.92;;;4.15;;
67696;SDS011;54486;51.442;6.778;2024-01-25T01:17:45;21.17;;;4.28;;
67696;SDS011;54486;51.442;6.778;2024-01-25T01:20:13;16.58;;;4.20;;
67696;SDS011;54486;51.442;6.778;2024-01-25T01:22:40;20.03;;;4.47;;
67696;SDS011;54486;51.442;6.778;2024-01-25T01:25:08;18.70;;;4.38;;
67696;SDS011;54486;51.442;6.778;2024-01-25T01:27:37;19.42;;;4.45;;
67696;SDS011;54486;51.442;6.778;2024-01-25T01:30:05;20.75;;;4.38;;
67696;SDS011;54486;51.442;6.778;2024-01-25T01:32:35;21.38;;;4.43;;
67696;SDS011;54486;51.442;6.778;2024-01-25T01:35:02;19.17;;;4.72;;
67696;SDS011;54486;51.442;6.778;2024-01-25T01:37:30;22.77;;;4.53;;
67696;SDS011;54486;51.442;6.778;2024-01-25T01:39:57;19.60;;;3.70;;
67696;SDS011;54486;51.442;6.778;2024-01-25T01:42:27;22.27;;;4.10;;
67696;SDS011;54486;51.442;6.778;2024-01-25T01:44:54;20.92;;;4.13;;
67696;SDS011;54486;51.442;6.778;2024-01-25T01:47:21;21.55;;;4.68;;
67696;SDS011;54486;51.442;6.778;2024-01-25T01:49:49;17.73;;;4.05;;
67696;SDS011;54486;51.442;6.778;2024-01-25T01:52:17;18.92;;;3.92;;
67696;SDS011;54486;51.442;6.778;2024-01-25T01:54:45;19.60;;;4.00;;
67696;SDS011;54486;51.442;6.778;2024-01-25T01:57:13;20.60;;;4.20;;
67696;SDS011;54486;51.442;6.778;2024-01-25T01:59:41;19.25;;;3.83;;
67696;SDS011;54486;51.442;6.778;2024-01-25T02:02:08;22.27;;;4.53;;
67696;SDS011;54486;51.442;6.778;2024-01-25T02:04:35;17.48;;;4.05;;
67696;SDS011;54486;51.442;6.778;2024-01-25T02:07:02;19.00;;;4.27;;
67696;SDS011;54486;51.442;6.778;2024-01-25T02:09:31;19.92;;;4.22;;
67696;SDS011;54486;51.442;6.778;2024-01-25T02:12:02;22.05;;;3.92;;
67696;SDS011;54486;51.442;6.778;2024-01-25T02:14:30;21.23;;;4.57;;
67696;SDS011;54486;51.442;6.778;2024-01-25T02:16:57;17.60;;;4.28;;
67696;SDS011;54486;51.442;6.778;2024-01-25T02:19:25;20.23;;;4.30;;
67696;SDS011;54486;51.442;6.778;2024-01-25T02:21:53;19.40;;;4.93;;
67696;SDS011;54486;51.442;6.778;2024-01-25T02:24:21;17.75;;;4.22;;
67696;SDS011;54486;51.442;6.778;2024-01-25T02:26:48;16.73;;;3.72;;
67696;SDS011;54486;51.442;6.778;2024-01-25T02:29:16;18.90;;;4.60;;
67696;SDS011;54486;51.442;6.778;2024-01-25T02:31:43;19.13;;;4.15;;
67696;SDS011;54486;51.442;6.778;2024-01-25T02:34:11;19.55;;;4.28;;
67696;SDS011;54486;51.442;6.778;2024-01-25T02:36:38;21.73;;;4.43;;
67696;SDS011;54486;51.442;6.778;2024-01-25T02:39:06;21.00;;;4.20;;
67696;SDS011;54486;51.442;6.778;2024-01-25T02:41:33;18.50;;;4.45;;
67696;SDS011;54486;51.442;6.778;2024-01-25T02:44:00;19.90;;;4.18;;
67696;SDS011;54486;51.442;6.778;2024-01-25T02:46:28;19.02;;;4.45;;
67696;SDS011;54486;51.442;6.778;2024-01-25T02:48:56;19.52;;;4.07;;
67696;SDS011;54486;51.442;6.778;2024-01-25T02:51:24;17.23;;;4.30;;
67696;SDS011;54486;51.442;6.778;2024-01-25T02:53:50;20.50;;;3.90;;
67696;SDS011;54486;51.442;6.778;2024-01-25T02:56:17;20.98;;;4.20;;
67696;SDS011;54486;51.442;6.778;2024-01-25T02:58:45;20.00;;;4.38;;
67696;SDS011;54486;51.442;6.778;2024-01-25T03:01:12;23.27;;;4.60;;
67696;SDS011;54486;51.442;6.778;2024-01-25T03:03:39;19.77;;;3.80;;
67696;SDS011;54486;51.442;6.778;2024-01-25T03:06:08;22.60;;;4.33;;
67696;SDS011;54486;51.442;6.778;2024-01-25T03:08:37;18.40;;;4.07;;
67696;SDS011;54486;51.442;6.778;2024-01-25T03:11:04;24.37;;;3.83;;
67696;SDS011;54486;51.442;6.778;2024-01-25T03:13:32;15.93;;;3.85;;
67696;SDS011;54486;51.442;6.778;2024-01-25T03:16:01;22.08;;;4.60;;
67696;SDS011;54486;51.442;6.778;2024-01-25T03:18:28;18.67;;;3.88;;
67696;SDS011;54486;51.442;6.778;2024-01-25T03:20:55;21.67;;;4.22;;
67696;SDS011;54486;51.442;6.778;2024-01-25T03:23:22;18.02;;;3.67;;
67696;SDS011;54486;51.442;6.778;2024-01-25T03:25:50;21.10;;;4.47;;
67696;SDS011;54486;51.442;6.778;2024-01-25T03:28:17;20.15;;;4.47;;
67696;SDS011;54486;51.442;6.778;2024-01-25T03:30:46;17.13;;;3.50;;
67696;SDS011;54486;51.442;6.778;2024-01-25T03:33:13;19.27;;;4.00;;
67696;SDS011;54486;51.442;6.778;2024-01-25T03:35:41;19.02;;;3.47;;
67696;SDS011;54486;51.442;6.778;2024-01-25T03:38:08;20.92;;;4.10;;
67696;SDS011;54486;51.442;6.778;2024-01-25T03:40:36;20.63;;;3.95;;
67696;SDS011;54486;51.442;6.778;2024-01-25T03:43:03;17.97;;;3.53;;
67696;SDS011;54486;51.442;6.778;2024-01-25T03:45:45;18.83;;;3.83;;
67696;SDS011;54486;51.442;6.778;2024-01-25T03:48:12;18.40;;;4.00;;
67696;SDS011;54486;51.442;6.778;2024-01-25T03:50:39;18.33;;;3.80;;
67696;SDS011;54486;51.442;6.778;2024-01-25T03:53:07;19.15;;;4.03;;
67696;SDS011;54486;51.442;6.778;2024-01-25T03:55:34;20.03;;;3.77;;
67696;SDS011;54486;51.442;6.778;2024-01-25T03:58:01;22.35;;;4.55;;
67696;SDS011;54486;51.442;6.778;2024-01-25T04:00:28;18.05;;;3.58;;
67696;SDS011;54486;51.442;6.778;2024-01-25T04:02:56;20.20;;;4.22;;
67696;SDS011;54486;51.442;6.778;2024-01-25T04:05:23;17.70;;;4.43;;
67696;SDS011;54486;51.442;6.778;2024-01-25T04:07:50;18.90;;;4.15;;
67696;SDS011;54486;51.442;6.778;2024-01-25T04:10:18;20.70;;;4.70;;
67696;SDS011;54486;51.442;6.778;2024-01-25T04:12:45;17.15;;;4.13;;
67696;SDS011;54486;51.442;6.778;2024-01-25T04:15:13;20.65;;;3.50;;
67696;SDS011;54486;51.442;6.778;2024-01-25T04:17:41;20.60;;;4.53;;
67696;SDS011;54486;51.442;6.778;2024-01-25T04:20:09;17.23;;;4.13;;
67696;SDS011;54486;51.442;6.778;2024-01-25T04:22:38;19.17;;;3.90;;
67696;SDS011;54486;51.442;6.778;2024-01-25T04:25:05;18.08;;;4.00;;
67696;SDS011;54486;51.442;6.778;2024-01-25T04:27:36;19.83;;;3.83;;
67696;SDS011;54486;51.442;6.778;2024-01-25T04:30:05;18.92;;;4.28;;
67696;SDS011;54486;51.442;6.778;2024-01-25T04:32:34;20.77;;;5.00;;
67696;SDS011;54486;51.442;6.778;2024-01-25T04:35:02;17.50;;;4.10;;
67696;SDS011;54486;51.442;6.778;2024-01-25T04:37:29;19.65;;;4.50;;
67696;SDS011;54486;51.442;6.778;2024-01-25T04:39:56;19.88;;;3.90;;
67696;SDS011;54486;51.442;6.778;2024-01-25T04:42:24;15.77;;;4.07;;
67696;SDS011;54486;51.442;6.778;2024-01-25T04:44:51;19.05;;;4.10;;
67696;SDS011;54486;51.442;6.778;2024-01-25T04:47:18;18.52;;;4.38;;
67696;SDS011;54486;51.442;6.778;2024-01-25T04:49:46;18.75;;;3.80;;
67696;SDS011;54486;51.442;6.778;2024-01-25T04:52:13;18.20;;;4.20;;
67696;SDS011;54486;51.442;6.778;2024-01-25T04:54:40;15.95;;;3.70;;
67696;SDS011;54486;51.442;6.778;2024-01-25T04:57:08;16.80;;;3.83;;
67696;SDS011;54486;51.442;6.778;2024-01-25T04:59:36;21.67;;;4.22;;
67696;SDS011;54486;51.442;6.778;2024-01-25T05:02:04;19.58;;;4.03;;
67696;SDS011;54486;51.442;6.778;2024-01-25T05:04:31;18.05;;;4.18;;
67696;SDS011;54486;51.442;6.778;2024-01-25T05:06:59;17.27;;;3.65;;
67696;SDS011;54486;51.442;6.778;2024-01-25T05:09:27;18.48;;;4.93;;
67696;SDS011;54486;51.442;6.778;2024-01-25T05:11:54;21.17;;;3.72;;
67696;SDS011;54486;51.442;6.778;2024-01-25T05:14:25;22.58;;;3.92;;
67696;SDS011;54486;51.442;6.778;2024-01-25T05:16:53;21.10;;;4.50;;
67696;SDS011;54486;51.442;6.778;2024-01-25T05:19:20;20.97;;;4.27;;
67696;SDS011;54486;51.442;6.778;2024-01-25T05:21:47;20.20;;;4.63;;
67696;SDS011;54486;51.442;6.778;2024-01-25T05:24:15;18.13;;;3.75;;
67696;SDS011;54486;51.442;6.778;2024-01-25T05:26:43;20.33;;;4.35;;
67696;SDS011;54486;51.442;6.778;2024-01-25T05:29:11;19.93;;;3.97;;
67696;SDS011;54486;51.442;6.778;2024-01-25T05:31:39;21.43;;;5.03;;
67696;SDS011;54486;51.442;6.778;2024-01-25T05:34:07;18.52;;;4.30;;
67696;SDS011;54486;51.442;6.778;2024-01-25T05:36:35;21.40;;;4.23;;
67696;SDS011;54486;51.442;6.778;2024-01-25T05:39:02;20.42;;;4.00;;
67696;SDS011;54486;51.442;6.778;2024-01-25T05:41:33;19.55;;;4.20;;
67696;SDS011;54486;51.442;6.778;2024-01-25T05:44:00;22.48;;;4.43;;
67696;SDS011;54486;51.442;6.778;2024-01-25T05:46:28;20.27;;;3.67;;
67696;SDS011;54486;51.442;6.778;2024-01-25T05:48:56;20.17;;;4.35;;
67696;SDS011;54486;51.442;6.778;2024-01-25T05:51:23;17.10;;;3.88;;
67696;SDS011;54486;51.442;6.778;2024-01-25T05:53:50;18.63;;;3.88;;
67696;SDS011;54486;51.442;6.778;2024-01-25T05:56:18;19.08;;;3.90;;
67696;SDS011;54486;51.442;6.778;2024-01-25T05:58:45;20.80;;;4.25;;
67696;SDS011;54486;51.442;6.778;2024-01-25T06:01:13;19.33;;;4.25;;
67696;SDS011;54486;51.442;6.778;2024-01-25T06:03:41;19.95;;;4.03;;
67696;SDS011;54486;51.442;6.778;2024-01-25T06:06:08;21.70;;;4.20;;
67696;SDS011;54486;51.442;6.778;2024-01-25T06:08:36;17.65;;;4.20;;
67696;SDS011;54486;51.442;6.778;2024-01-25T06:11:04;20.38;;;4.68;;
67696;SDS011;54486;51.442;6.778;2024-01-25T06:13:32;21.73;;;4.43;;
67696;SDS011;54486;51.442;6.778;2024-01-25T06:15:59;23.20;;;4.68;;
67696;SDS011;54486;51.442;6.778;2024-01-25T06:18:27;19.45;;;4.05;;
67696;SDS011;54486;51.442;6.778;2024-01-25T06:20:55;22.37;;;4.40;;
67696;SDS011;54486;51.442;6.778;2024-01-25T06:23:22;20.48;;;4.20;;
67696;SDS011;54486;51.442;6.778;2024-01-25T06:25:49;24.25;;;4.65;;
67696;SDS011;54486;51.442;6.778;2024-01-25T06:28:17;19.27;;;4.22;;
67696;SDS011;54486;51.442;6.778;2024-01-25T06:30:46;19.35;;;4.47;;
67696;SDS011;54486;51.442;6.778;2024-01-25T06:33:13;22.50;;;4.25;;
67696;SDS011;54486;51.442;6.778;2024-01-25T06:35:41;18.90;;;5.05;;
67696;SDS011;54486;51.442;6.778;2024-01-25T06:38:08;20.63;;;5.20;;
67696;SDS011;54486;51.442;6.778;2024-01-25T06:40:36;22.13;;;4.68;;
67696;SDS011;54486;51.442;6.778;2024-01-25T06:43:03;20.33;;;4.68;;
67696;SDS011;54486;51.442;6.778;2024-01-25T06:45:31;21.00;;;4.28;;
67696;SDS011;54486;51.442;6.778;2024-01-25T06:47:58;18.93;;;3.90;;
67696;SDS011;54486;51.442;6.778;2024-01-25T06:50:26;19.73;;;4.65;;
67696;SDS011;54486;51.442;6.778;2024-01-25T06:52:54;19.30;;;4.47;;
67696;SDS011;54486;51.442;6.778;2024-01-25T06:55:22;20.17;;;4.47;;
67696;SDS011;54486;51.442;6.778;2024-01-25T06:57:49;21.77;;;4.72;;
67696;SDS011;54486;51.442;6.778;2024-01-25T07:00:17;21.40;;;4.45;;
67696;SDS011;54486;51.442;6.778;2024-01-25T07:02:46;19.63;;;4.67;;
67696;SDS011;54486;51.442;6.778;2024-01-25T07:05:14;20.30;;;5.17;;
67696;SDS011;54486;51.442;6.778;2024-01-25T07:07:43;20.77;;;4.07;;
67696;SDS011;54486;51.442;6.778;2024-01-25T07:10:11;20.35;;;4.55;;
67696;SDS011;54486;51.442;6.778;2024-01-25T07:12:39;22.20;;;4.80;;
67696;SDS011;54486;51.442;6.778;2024-01-25T07:15:06;23.50;;;5.10;;
67696;SDS011;54486;51.442;6.778;2024-01-25T07:17:34;18.85;;;4.32;;
67696;SDS011;54486;51.442;6.778;2024-01-25T07:20:02;19.70;;;4.40;;
67696;SDS011;54486;51.442;6.778;2024-01-25T07:22:30;18.92;;;4.40;;
67696;SDS011;54486;51.442;6.778;2024-01-25T07:24:58;18.97;;;4.87;;
67696;SDS011;54486;51.442;6.778;2024-01-25T07:27:26;20.85;;;4.82;;
67696;SDS011;54486;51.442;6.778;2024-01-25T07:29:53;19.23;;;4.72;;
67696;SDS011;54486;51.442;6.778;2024-01-25T07:32:21;19.70;;;4.70;;
67696;SDS011;54486;51.442;6.778;2024-01-25T07:34:48;22.92;;;4.78;;
67696;SDS011;54486;51.442;6.778;2024-01-25T07:37:16;22.48;;;4.75;;
67696;SDS011;54486;51.442;6.778;2024-01-25T07:39:45;20.40;;;4.55;;
67696;SDS011;54486;51.442;6.778;2024-01-25T07:42:13;20.08;;;4.50;;
67696;SDS011;54486;51.442;6.778;2024-01-25T07:44:40;19.90;;;4.68;;
67696;SDS011;54486;51.442;6.778;2024-01-25T07:47:07;22.20;;;4.53;;
67696;SDS011;54486;51.442;6.778;2024-01-25T07:49:34;18.45;;;4.32;;
67696;SDS011;54486;51.442;6.778;2024-01-25T07:52:02;21.17;;;4.63;;
67696;SDS011;54486;51.442;6.778;2024-01-25T07:54:29;20.00;;;4.40;;
67696;SDS011;54486;51.442;6.778;2024-01-25T07:56:57;21.95;;;5.07;;
67696;SDS011;54486;51.442;6.778;2024-01-25T07:59:24;20.65;;;4.47;;
67696;SDS011;54486;51.442;6.778;2024-01-25T08:01:51;20.52;;;4.45;;
67696;SDS011;54486;51.442;6.778;2024-01-25T08:04:19;22.73;;;5.03;;
67696;SDS011;54486;51.442;6.778;2024-01-25T08:06:46;21.00;;;4.55;;
67696;SDS011;54486;51.442;6.778;2024-01-25T08:09:14;20.80;;;4.90;;
67696;SDS011;54486;51.442;6.778;2024-01-25T08:11:41;21.65;;;4.20;;
67696;SDS011;54486;51.442;6.778;2024-01-25T08:14:09;20.60;;;5.13;;
67696;SDS011;54486;51.442;6.778;2024-01-25T08:16:36;23.38;;;5.20;;
67696;SDS011;54486;51.442;6.778;2024-01-25T08:19:04;19.03;;;4.90;;
67696;SDS011;54486;51.442;6.778;2024-01-25T08:21:31;22.13;;;5.03;;
67696;SDS011;54486;51.442;6.778;2024-01-25T08:23:59;18.97;;;5.07;;
67696;SDS011;54486;51.442;6.778;2024-01-25T08:26:26;22.98;;;5.20;;
67696;SDS011;54486;51.442;6.778;2024-01-25T08:28:54;21.73;;;5.32;;
67696;SDS011;54486;51.442;6.778;2024-01-25T08:31:22;23.27;;;5.30;;
67696;SDS011;54486;51.442;6.778;2024-01-25T08:33:49;22.45;;;5.30;;
67696;SDS011;54486;51.442;6.778;2024-01-25T08:36:17;21.55;;;5.90;;
67696;SDS011;54486;51.442;6.778;2024-01-25T08:38:49;20.60;;;5.17;;
67696;SDS011;54486;51.442;6.778;2024-01-25T08:41:17;20.20;;;5.00;;
67696;SDS011;54486;51.442;6.778;2024-01-25T08:43:44;23.53;;;6.40;;
67696;SDS011;54486;51.442;6.778;2024-01-25T08:46:15;23.77;;;4.53;;
67696;SDS011;54486;51.442;6.778;2024-01-25T08:48:43;21.45;;;5.10;;
67696;SDS011;54486;51.442;6.778;2024-01-25T08:51:10;22.13;;;4.97;;
67696;SDS011;54486;51.442;6.778;2024-01-25T08:53:38;21.33;;;5.38;;
67696;SDS011;54486;51.442;6.778;2024-01-25T08:56:05;20.77;;;5.05;;
67696;SDS011;54486;51.442;6.778;2024-01-25T08:58:33;22.10;;;5.47;;
67696;SDS011;54486;51.442;6.778;2024-01-25T09:01:00;23.45;;;5.70;;
67696;SDS011;54486;51.442;6.778;2024-01-25T09:03:28;22.10;;;5.70;;
67696;SDS011;54486;51.442;6.778;2024-01-25T09:05:55;22.23;;;5.28;;
67696;SDS011;54486;51.442;6.778;2024-01-25T09:08:23;24.52;;;5.57;;
67696;SDS011;54486;51.442;6.778;2024-01-25T09:10:51;20.23;;;5.30;;
67696;SDS011;54486;51.442;6.778;2024-01-25T09:13:18;21.90;;;5.82;;
67696;SDS011;54486;51.442;6.778;2024-01-25T09:15:46;19.02;;;4.88;;
67696;SDS011;54486;51.442;6.778;2024-01-25T09:18:14;23.60;;;6.47;;
67696;SDS011;54486;51.442;6.778;2024-01-25T09:20:42;22.52;;;5.45;;
67696;SDS011;54486;51.442;6.778;2024-01-25T09:23:15;22.02;;;5.93;;
67696;SDS011;54486;51.442;6.778;2024-01-25T09:25:44;19.25;;;5.32;;
67696;SDS011;54486;51.442;6.778;2024-01-25T09:28:12;20.27;;;5.63;;
67696;SDS011;54486;51.442;6.778;2024-01-25T09:30:40;22.33;;;5.78;;
67696;SDS011;54486;51.442;6.778;2024-01-25T09:33:08;24.35;;;5.47;;
67696;SDS011;54486;51.442;6.778;2024-01-25T09:35:35;23.05;;;6.40;;
67696;SDS011;54486;51.442;6.778;2024-01-25T09:38:03;20.57;;;5.10;;
67696;SDS011;54486;51.442;6.778;2024-01-25T09:40:31;24.95;;;6.03;;
67696;SDS011;54486;51.442;6.778;2024-01-25T09:43:00;25.30;;;5.83;;
67696;SDS011;54486;51.442;6.778;2024-01-25T09:45:28;22.03;;;6.03;;
67696;SDS011;54486;51.442;6.778;2024-01-25T09:47:58;23.02;;;5.43;;
67696;SDS011;54486;51.442;6.778;2024-01-25T09:50:26;20.70;;;4.95;;
67696;SDS011;54486;51.442;6.778;2024-01-25T09:52:54;22.60;;;5.50;;
67696;SDS011;54486;51.442;6.778;2024-01-25T09:55:24;24.13;;;6.13;;
67696;SDS011;54486;51.442;6.778;2024-01-25T09:57:53;22.50;;;6.32;;
67696;SDS011;54486;51.442;6.778;2024-01-25T10:00:24;20.88;;;5.45;;
67696;SDS011;54486;51.442;6.778;2024-01-25T10:02:52;23.27;;;6.03;;
67696;SDS011;54486;51.442;6.778;2024-01-25T10:05:20;22.83;;;5.95;;
67696;SDS011;54486;51.442;6.778;2024-01-25T10:07:47;21.38;;;6.10;;
67696;SDS011;54486;51.442;6.778;2024-01-25T10:10:15;22.75;;;6.75;;
67696;SDS011;54486;51.442;6.778;2024-01-25T10:12:43;22.83;;;6.30;;
67696;SDS011;54486;51.442;6.778;2024-01-25T10:15:11;25.65;;;6.63;;
67696;SDS011;54486;51.442;6.778;2024-01-25T10:17:39;22.08;;;6.43;;
67696;SDS011;54486;51.442;6.778;2024-01-25T10:20:26;20.80;;;6.10;;
67696;SDS011;54486;51.442;6.778;2024-01-25T10:22:58;21.33;;;6.15;;
67696;SDS011;54486;51.442;6.778;2024-01-25T10:25:27;25.52;;;6.15;;
67696;SDS011;54486;51.442;6.778;2024-01-25T10:27:55;22.55;;;6.20;;
67696;SDS011;54486;51.442;6.778;2024-01-25T10:30:23;25.00;;;7.00;;
67696;SDS011;54486;51.442;6.778;2024-01-25T10:32:51;23.00;;;6.90;;
67696;SDS011;54486;51.442;6.778;2024-01-25T10:35:20;24.35;;;7.10;;
67696;SDS011;54486;51.442;6.778;2024-01-25T10:37:51;27.90;;;7.50;;
67696;SDS011;54486;51.442;6.778;2024-01-25T10:40:19;22.33;;;7.50;;
67696;SDS011;54486;51.442;6.778;2024-01-25T10:42:47;23.55;;;7.30;;
67696;SDS011;54486;51.442;6.778;2024-01-25T10:45:15;21.77;;;7.30;;
67696;SDS011;54486;51.442;6.778;2024-01-25T10:47:43;24.27;;;8.18;;
67696;SDS011;54486;51.442;6.778;2024-01-25T10:50:15;24.65;;;8.52;;
67696;SDS011;54486;51.442;6.778;2024-01-25T10:52:43;26.58;;;7.85;;
67696;SDS011;54486;51.442;6.778;2024-01-25T10:55:11;25.67;;;8.32;;
67696;SDS011;54486;51.442;6.778;2024-01-25T10:57:43;24.93;;;8.87;;
67696;SDS011;54486;51.442;6.778;2024-01-25T11:00:13;28.08;;;8.55;;
67696;SDS011;54486;51.442;6.778;2024-01-25T11:02:43;26.87;;;8.57;;
67696;SDS011;54486;51.442;6.778;2024-01-25T11:05:12;29.02;;;8.77;;
67696;SDS011;54486;51.442;6.778;2024-01-25T11:07:42;27.07;;;8.53;;
67696;SDS011;54486;51.442;6.778;2024-01-25T11:10:17;25.63;;;9.00;;
67696;SDS011;54486;51.442;6.778;2024-01-25T11:12:47;30.92;;;8.73;;
67696;SDS011;54486;51.442;6.778;2024-01-25T11:15:21;26.58;;;8.70;;
67696;SDS011;54486;51.442;6.778;2024-01-25T11:17:51;26.95;;;9.15;;
67696;SDS011;54486;51.442;6.778;2024-01-25T11:20:24;26.80;;;8.73;;
67696;SDS011;54486;51.442;6.778;2024-01-25T11:22:57;27.65;;;9.35;;
67696;SDS011;54486;51.442;6.778;2024-01-25T11:25:32;27.42;;;9.57;;
67696;SDS011;54486;51.442;6.778;2024-01-25T11:28:04;25.73;;;8.60;;
67696;SDS011;54486;51.442;6.778;2024-01-25T11:30:33;30.10;;;9.07;;
67696;SDS011;54486;51.442;6.778;2024-01-25T11:33:04;28.27;;;9.93;;
67696;SDS011;54486;51.442;6.778;2024-01-25T11:35:33;29.93;;;10.67;;
67696;SDS011;54486;51.442;6.778;2024-01-25T11:38:03;27.00;;;9.67;;
67696;SDS011;54486;51.442;6.778;2024-01-25T11:40:30;31.05;;;9.52;;
67696;SDS011;54486;51.442;6.778;2024-01-25T11:43:04;28.67;;;10.07;;
67696;SDS011;54486;51.442;6.778;2024-01-25T11:45:38;29.63;;;10.07;;
67696;SDS011;54486;51.442;6.778;2024-01-25T11:48:09;26.35;;;10.00;;
67696;SDS011;54486;51.442;6.778;2024-01-25T11:50:40;26.13;;;9.80;;
67696;SDS011;54486;51.442;6.778;2024-01-25T11:53:07;25.58;;;8.57;;
67696;SDS011;54486;51.442;6.778;2024-01-25T11:55:35;23.90;;;8.80;;
67696;SDS011;54486;51.442;6.778;2024-01-25T11:58:02;26.73;;;9.43;;
67696;SDS011;54486;51.442;6.778;2024-01-25T12:00:30;27.92;;;9.50;;
67696;SDS011;54486;51.442;6.778;2024-01-25T12:02:58;23.42;;;9.00;;
67696;SDS011;54486;51.442;6.778;2024-01-25T12:05:26;27.20;;;8.25;;
67696;SDS011;54486;51.442;6.778;2024-01-25T12:07:54;26.13;;;9.50;;
67696;SDS011;54486;51.442;6.778;2024-01-25T12:10:21;24.70;;;9.23;;
67696;SDS011;54486;51.442;6.778;2024-01-25T12:12:50;27.10;;;8.95;;
67696;SDS011;54486;51.442;6.778;2024-01-25T12:15:17;25.75;;;9.27;;
67696;SDS011;54486;51.442;6.778;2024-01-25T12:17:44;25.10;;;8.70;;
67696;SDS011;54486;51.442;6.778;2024-01-25T12:20:11;28.27;;;9.23;;
67696;SDS011;54486;51.442;6.778;2024-01-25T12:22:39;30.90;;;8.57;;
67696;SDS011;54486;51.442;6.778;2024-01-25T12:25:08;26.85;;;9.27;;
67696;SDS011;54486;51.442;6.778;2024-01-25T12:27:40;27.80;;;9.97;;
67696;SDS011;54486;51.442;6.778;2024-01-25T12:30:08;26.63;;;9.30;;
67696;SDS011;54486;51.442;6.778;2024-01-25T12:32:36;29.63;;;9.93;;
67696;SDS011;54486;51.442;6.778;2024-01-25T12:35:04;27.73;;;9.75;;
67696;SDS011;54486;51.442;6.778;2024-01-25T12:37:32;29.90;;;11.30;;
67696;SDS011;54486;51.442;6.778;2024-01-25T12:39:59;31.05;;;10.32;;
67696;SDS011;54486;51.442;6.778;2024-01-25T12:42:28;31.97;;;10.60;;
67696;SDS011;54486;51.442;6.778;2024-01-25T12:44:55;32.27;;;10.07;;
67696;SDS011;54486;51.442;6.778;2024-01-25T12:47:22;27.55;;;9.65;;
67696;SDS011;54486;51.442;6.778;2024-01-25T12:49:50;31.60;;;9.77;;
67696;SDS011;54486;51.442;6.778;2024-01-25T12:52:17;26.10;;;9.60;;
67696;SDS011;54486;51.442;6.778;2024-01-25T12:54:46;31.80;;;9.70;;
67696;SDS011;54486;51.442;6.778;2024-01-25T12:57:14;25.73;;;9.40;;
67696;SDS011;54486;51.442;6.778;2024-01-25T12:59:42;28.38;;;9.95;;
67696;SDS011;54486;51.442;6.778;2024-01-25T13:02:09;27.80;;;9.30;;
67696;SDS011;54486;51.442;6.778;2024-01-25T13:04:39;26.02;;;9.23;;
67696;SDS011;54486;51.442;6.778;2024-01-25T13:07:07;26.10;;;9.05;;
67696;SDS011;54486;51.442;6.778;2024-01-25T13:09:34;26.00;;;9.18;;
67696;SDS011;54486;51.442;6.778;2024-01-25T13:12:04;27.73;;;8.60;;
67696;SDS011;54486;51.442;6.778;2024-01-25T13:14:32;30.05;;;8.65;;
67696;SDS011;54486;51.442;6.778;2024-01-25T13:17:01;32.10;;;8.93;;
67696;SDS011;54486;51.442;6.778;2024-01-25T13:19:30;25.80;;;9.07;;
67696;SDS011;54486;51.442;6.778;2024-01-25T13:21:58;24.58;;;8.80;;
67696;SDS011;54486;51.442;6.778;2024-01-25T13:24:25;26.45;;;8.63;;
67696;SDS011;54486;51.442;6.778;2024-01-25T13:26:52;30.67;;;9.13;;
67696;SDS011;54486;51.442;6.778;2024-01-25T13:29:19;29.27;;;8.33;;
67696;SDS011;54486;51.442;6.778;2024-01-25T13:31:46;28.00;;;8.77;;
67696;SDS011;54486;51.442;6.778;2024-01-25T13:34:14;29.43;;;9.10;;
67696;SDS011;54486;51.442;6.778;2024-01-25T13:36:42;27.73;;;8.57;;
67696;SDS011;54486;51.442;6.778;2024-01-25T13:39:10;28.02;;;9.07;;
67696;SDS011;54486;51.442;6.778;2024-01-25T13:41:37;27.40;;;9.83;;
67696;SDS011;54486;51.442;6.778;2024-01-25T13:44:04;25.13;;;9.15;;
67696;SDS011;54486;51.442;6.778;2024-01-25T13:46:32;28.10;;;9.73;;
67696;SDS011;54486;51.442;6.778;2024-01-25T13:48:59;29.17;;;9.00;;
67696;SDS011;54486;51.442;6.778;2024-01-25T13:51:27;29.20;;;9.50;;
67696;SDS011;54486;51.442;6.778;2024-01-25T13:53:54;26.73;;;9.13;;
67696;SDS011;54486;51.442;6.778;2024-01-25T13:56:21;25.65;;;8.57;;
67696;SDS011;54486;51.442;6.778;2024-01-25T13:58:48;26.95;;;9.35;;
67696;SDS011;54486;51.442;6.778;2024-01-25T14:01:16;26.33;;;9.40;;
67696;SDS011;54486;51.442;6.778;2024-01-25T14:03:43;27.17;;;8.93;;
67696;SDS011;54486;51.442;6.778;2024-01-25T14:06:11;28.60;;;8.98;;
67696;SDS011;54486;51.442;6.778;2024-01-25T14:08:40;24.80;;;8.93;;
67696;SDS011;54486;51.442;6.778;2024-01-25T14:11:09;25.03;;;8.70;;
67696;SDS011;54486;51.442;6.778;2024-01-25T14:13:37;26.45;;;9.10;;
67696;SDS011;54486;51.442;6.778;2024-01-25T14:16:04;27.75;;;8.70;;
67696;SDS011;54486;51.442;6.778;2024-01-25T14:18:36;28.40;;;9.23;;
67696;SDS011;54486;51.442;6.778;2024-01-25T14:21:05;27.08;;;8.65;;
67696;SDS011;54486;51.442;6.778;2024-01-25T14:23:33;24.17;;;8.40;;
67696;SDS011;54486;51.442;6.778;2024-01-25T14:26:03;23.08;;;8.65;;
67696;SDS011;54486;51.442;6.778;2024-01-25T14:28:31;25.60;;;8.18;;
67696;SDS011;54486;51.442;6.778;2024-01-25T14:30:58;27.00;;;8.77;;
67696;SDS011;54486;51.442;6.778;2024-01-25T14:33:26;27.30;;;9.30;;
67696;SDS011;54486;51.442;6.778;2024-01-25T14:35:54;27.50;;;8.37;;
67696;SDS011;54486;51.442;6.778;2024-01-25T14:38:22;24.05;;;8.95;;